Time;durP1;ratioP1;P1;durP2;ratioP2;P2;SDS_P1;SDS_P2;PMS_P1;PMS_P2;Temp;Humidity;BMP_temperature;BMP_pressure;BME280_temperature;BME280_humidity;BME280_pressure;Samples;Min_cycle;Max_cycle;Signal;HPM_P1;HPM_P2
2022/02/22 00:08:13;;;;;;;;;;;4.10;99.90;;;;;;20992035;28;20028;-75
2022/02/22 00:18:14;;;;;;;10.97;3.70;;;4.20;99.90;;;;;;20991097;28;19946;-75
2022/02/22 00:28:17;;;;;;;;;;;4.40;99.90;;;;;;20991090;28;20119;-74
2022/02/22 00:38:19;;;;;;;10.55;2.75;;;4.50;99.90;;;;;;20988349;28;20428;-75
2022/02/22 00:48:19;;;;;;;5.25;1.52;;;4.50;99.90;;;;;;20971235;28;20035;-75
2022/02/22 00:58:20;;;;;;;;;;;4.40;99.90;;;;;;20994027;28;20028;-74
2022/02/22 01:08:21;;;;;;;4.50;1.50;;;4.50;99.90;;;;;;21005346;28;20377;-75
2022/02/22 01:18:22;;;;;;;;;;;4.40;99.90;;;;;;21005047;28;20399;-75
2022/02/22 01:28:23;;;;;;;8.10;1.83;;;4.40;99.90;;;;;;21003741;28;20105;-75
2022/02/22 01:38:24;;;;;;;;;;;4.30;99.90;;;;;;21003493;28;20055;-75
2022/02/22 01:48:25;;;;;;;3.92;1.50;;;4.20;99.90;;;;;;21002119;28;19916;-75
2022/02/22 01:58:29;;;;;;;;;;;4.20;99.90;;;;;;21002153;28;20633;-75
2022/02/22 02:08:37;;;;;;;8.73;2.00;;;4.30;99.90;;;;;;21000087;28;19918;-74
2022/02/22 02:18:37;;;;;;;;;;;4.40;99.90;;;;;;21000616;28;20448;-75
2022/02/22 02:28:38;;;;;;;8.63;2.67;;;4.30;99.90;;;;;;20999360;28;19912;-75
2022/02/22 02:38:41;;;;;;;;;;;4.40;99.90;;;;;;20999031;28;20270;-75
2022/02/22 02:48:41;;;;;;;11.18;2.78;;;4.40;99.90;;;;;;20997607;28;19912;-75
2022/02/22 02:58:42;;;;;;;;;;;4.40;99.90;;;;;;20979419;28;20103;-75
2022/02/22 03:08:43;;;;;;;20.52;3.92;;;4.20;99.90;;;;;;20978104;28;20391;-75
2022/02/22 03:18:45;;;;;;;16.42;3.90;;;4.30;99.90;;;;;;20976223;28;20124;-75
2022/02/22 03:28:46;;;;;;;15.70;3.78;;;4.40;99.90;;;;;;20994366;28;20042;-75
2022/02/22 03:38:47;;;;;;;;;;;4.40;99.90;;;;;;20994141;28;20486;-74
2022/02/22 03:48:48;;;;;;;19.98;3.50;;;4.50;99.90;;;;;;20992713;28;19916;-75
2022/02/22 03:58:48;;;;;;;;;;;4.60;99.90;;;;;;20992308;28;20526;-75
2022/02/22 04:08:49;;;;;;;18.20;3.23;;;4.60;99.90;;;;;;20997253;28;19912;-75
2022/02/22 04:18:50;;;;;;;;;;;4.80;99.90;;;;;;21139788;28;20035;-75
2022/02/22 04:28:52;;;;;;;15.90;3.10;;;4.80;99.90;;;;;;21140089;28;20274;-74
2022/02/22 04:38:53;;;;;;;22.00;3.35;;;4.80;99.90;;;;;;21157942;28;20399;-75
2022/02/22 04:48:54;;;;;;;;;;;4.70;99.90;;;;;;21157816;28;20480;-75
2022/02/22 04:58:55;;;;;;;17.23;2.63;;;4.70;99.90;;;;;;21157312;28;20666;-76
2022/02/22 05:08:56;;;;;;;14.02;3.00;;;4.60;99.90;;;;;;21138634;28;20031;-75
2022/02/22 05:18:57;;;;;;;;;;;4.60;99.90;;;;;;21110432;28;20449;-75
2022/02/22 05:28:58;;;;;;;18.10;5.03;;;4.70;99.90;;;;;;21051958;28;19912;-76
2022/02/22 05:38:58;;;;;;;;;;;4.70;99.90;;;;;;21032569;28;20482;-75
2022/02/22 05:48:59;;;;;;;19.30;4.23;;;4.70;99.90;;;;;;20998586;28;20334;-75
2022/02/22 05:59:02;;;;;;;;;;;4.70;99.90;;;;;;20984353;28;20781;-73
2022/02/22 06:09:03;;;;;;;20.23;3.75;;;4.80;99.90;;;;;;21000859;28;19919;-75
2022/02/22 06:19:04;;;;;;;;;;;4.80;99.90;;;;;;21000466;28;20028;-74
2022/02/22 06:29:05;;;;;;;23.15;4.95;;;4.80;99.90;;;;;;21062241;28;19941;-74
2022/02/22 06:39:06;;;;;;;;;;;4.90;99.90;;;;;;21081320;28;20047;-74
2022/02/22 06:49:07;;;;;;;27.43;3.90;;;4.90;99.90;;;;;;21063345;28;19912;-74
2022/02/22 06:59:08;;;;;;;;;;;4.90;99.90;;;;;;21081142;28;20028;-74
2022/02/22 07:09:08;;;;;;;23.23;4.03;;;4.90;99.90;;;;;;21080027;28;19973;-74
2022/02/22 07:19:09;;;;;;;17.83;4.13;;;5.00;99.90;;;;;;21078136;28;20285;-73
2022/02/22 07:29:10;;;;;;;21.77;3.63;;;5.10;99.90;;;;;;21078474;28;20373;-74
2022/02/22 07:39:11;;;;;;;19.95;4.65;;;5.10;99.90;;;;;;21077612;28;20024;-74
2022/02/22 07:49:12;;;;;;;25.13;4.70;;;5.10;99.90;;;;;;21076642;28;20494;-74
2022/02/22 07:59:12;;;;;;;;;;;5.20;99.90;;;;;;21076634;28;20067;-73
2022/02/22 08:09:13;;;;;;;31.20;4.50;;;5.30;99.90;;;;;;21075000;28;20282;-74
2022/02/22 08:19:14;;;;;;;30.10;4.95;;;5.50;99.90;;;;;;21074663;28;20365;-74
2022/02/22 08:29:15;;;;;;;24.83;4.00;;;5.60;99.90;;;;;;21074325;28;20679;-74
2022/02/22 08:39:16;;;;;;;19.63;3.55;;;5.60;99.90;;;;;;21055755;28;20039;-74
2022/02/22 08:49:17;;;;;;;;;;;5.70;99.90;;;;;;21073929;28;20115;-73
2022/02/22 08:59:18;;;;;;;16.80;3.80;;;5.80;99.90;;;;;;21064090;28;20409;-74
2022/02/22 09:09:18;;;;;;;22.97;3.80;;;5.80;99.90;;;;;;21003122;28;20513;-74
2022/02/22 09:19:19;;;;;;;13.10;2.77;;;6.00;99.90;;;;;;20993478;28;20032;-75
2022/02/22 09:29:20;;;;;;;18.20;3.10;;;6.10;99.90;;;;;;21004001;28;20357;-74
2022/02/22 09:39:21;;;;;;;33.93;4.53;;;6.10;99.90;;;;;;21003372;28;20282;-74
2022/02/22 09:49:22;;;;;;;21.13;3.27;;;6.10;99.90;;;;;;21002458;28;20028;-75
2022/02/22 09:59:24;;;;;;;19.93;3.57;;;6.20;99.90;;;;;;21001697;28;20028;-75
2022/02/22 10:09:24;;;;;;;19.33;4.38;;;6.40;99.90;;;;;;20983221;28;20045;-74
2022/02/22 10:19:30;;;;;;;14.73;2.87;;;6.60;99.90;;;;;;21000233;28;20036;-75
2022/02/22 10:29:32;;;;;;;24.55;3.50;;;6.60;99.90;;;;;;20999198;28;20037;-73
2022/02/22 10:39:33;;;;;;;23.95;3.67;;;6.40;99.90;;;;;;20998818;28;20074;-74
2022/02/22 10:49:37;;;;;;;21.80;3.80;;;6.10;99.90;;;;;;20997806;28;20035;-74
2022/02/22 10:59:38;;;;;;;19.48;3.10;;;6.20;99.90;;;;;;20979358;28;20270;-74
2022/02/22 11:09:40;;;;;;;22.37;3.60;;;6.40;99.90;;;;;;20996193;28;20029;-74
2022/02/22 11:19:41;;;;;;;14.52;2.88;;;6.60;99.90;;;;;;20977790;28;20036;-74
2022/02/22 11:29:42;;;;;;;16.83;2.97;;;7.00;99.90;;;;;;20994527;28;20106;-74
2022/02/22 11:39:52;;;;;;;20.77;3.15;;;8.60;99.90;;;;;;20993152;28;20033;-74
2022/02/22 11:49:56;;;;;;;17.38;2.90;;;8.60;99.90;;;;;;20974621;28;20060;-75
2022/02/22 12:00:01;;;;;;;14.63;2.42;;;8.20;99.90;;;;;;21029746;28;20082;-75
2022/02/22 12:10:22;;;;;;;11.68;2.45;;;8.40;99.90;;;;;;21054995;28;20035;-75
2022/02/22 12:20:26;;;;;;;19.27;3.40;;;8.60;99.90;;;;;;21074962;28;20547;-75
2022/02/22 12:30:35;;;;;;;13.55;2.58;;;8.40;99.90;;;;;;21056279;28;20028;-75
2022/02/22 12:40:36;;;;;;;13.88;1.80;;;9.20;99.90;;;;;;21073950;28;20039;-75
2022/02/22 12:50:37;;;;;;;13.30;2.17;;;8.90;99.90;;;;;;21053578;28;20036;-75
2022/02/22 13:00:38;;;;;;;13.57;2.15;;;9.00;99.90;;;;;;21072424;28;20443;-75
2022/02/22 13:10:45;;;;;;;4.97;1.27;;;9.00;99.90;;;;;;21071563;28;20032;-75
2022/02/22 13:20:47;;;;;;;9.95;3.03;;;9.10;99.90;;;;;;21070704;28;20040;-75
2022/02/22 13:30:48;;;;;;;20.90;2.40;;;9.60;99.90;;;;;;21087883;28;20063;-75
2022/02/22 13:40:48;;;;;;;14.70;2.47;;;9.60;99.90;;;;;;21086996;28;20028;-76
2022/02/22 13:50:49;;;;;;;21.43;2.03;;;9.60;99.90;;;;;;21056415;28;20051;-76
2022/02/22 14:00:59;;;;;;;13.90;2.63;;;9.90;99.90;;;;;;21030955;28;20496;-76
2022/02/22 14:11:00;;;;;;;16.48;2.35;;;9.40;99.90;;;;;;20988277;28;20048;-76
2022/02/22 14:21:01;;;;;;;15.63;2.47;;;9.30;99.90;;;;;;21001903;28;20035;-77
2022/02/22 14:31:01;;;;;;;9.13;1.60;;;9.30;99.90;;;;;;21024505;28;20028;-76
2022/02/22 14:41:03;;;;;;;9.23;2.27;;;9.10;99.90;;;;;;20978848;28;20502;-76
2022/02/22 15:02:07;;;;;;;17.83;2.67;;;9.00;99.90;;;;;;21008208;28;20305;-76
2022/02/22 15:12:08;;;;;;;15.35;2.47;;;9.00;99.90;;;;;;20976386;28;20029;-76
2022/02/22 15:22:09;;;;;;;14.07;3.00;;;9.00;99.90;;;;;;20957245;28;20052;-76
2022/02/22 15:32:12;;;;;;;15.60;2.97;;;9.00;99.90;;;;;;20979889;28;20055;-76
2022/02/22 15:42:12;;;;;;;9.13;1.85;;;8.90;99.90;;;;;;20973539;28;20439;-76
2022/02/22 15:52:16;;;;;;;10.10;2.27;;;8.80;99.90;;;;;;20985981;28;20067;-75
2022/02/22 16:02:17;;;;;;;13.02;2.10;;;8.70;99.90;;;;;;21018264;28;20036;-77
2022/02/22 16:12:19;;;;;;;9.23;2.07;;;8.70;99.90;;;;;;20971115;28;20043;-76
2022/02/22 16:22:20;;;;;;;13.82;2.00;;;8.70;99.90;;;;;;21000906;28;20028;-76
2022/02/22 16:32:27;;;;;;;12.80;2.85;;;8.60;99.90;;;;;;20993442;28;20111;-76
2022/02/22 16:42:28;;;;;;;13.68;2.33;;;8.40;99.90;;;;;;21009701;28;20024;-76
2022/02/22 16:52:29;;;;;;;16.43;2.67;;;8.30;99.90;;;;;;21022424;28;20089;-76
2022/02/22 17:02:33;;;;;;;19.83;2.97;;;8.20;99.90;;;;;;20992523;28;20044;-75
2022/02/22 17:12:33;;;;;;;16.80;3.50;;;8.00;99.90;;;;;;21001378;28;20052;-76
2022/02/22 17:22:38;;;;;;;24.83;3.10;;;7.70;99.90;;;;;;20968384;28;20033;-76
2022/02/22 17:32:40;;;;;;;15.10;2.42;;;7.60;99.90;;;;;;21009239;28;20032;-76
2022/02/22 17:42:41;;;;;;;22.80;2.33;;;7.40;99.90;;;;;;21025800;28;20600;-77
2022/02/22 17:52:43;;;;;;;16.55;2.88;;;7.30;99.90;;;;;;20982807;28;20033;-76
2022/02/22 18:02:44;;;;;;;18.23;3.00;;;7.30;99.90;;;;;;21038469;28;20162;-76
2022/02/22 18:12:48;;;;;;;18.17;3.57;;;7.30;99.90;;;;;;21025371;28;20457;-76
2022/02/22 18:22:49;;;;;;;16.02;2.47;;;7.30;99.90;;;;;;21045650;28;20126;-76
2022/02/22 18:32:49;;;;;;;12.90;2.33;;;7.20;99.90;;;;;;21043586;28;20839;-76
2022/02/22 18:42:50;;;;;;;17.93;3.20;;;7.30;99.90;;;;;;21003470;28;20486;-76
2022/02/22 18:52:51;;;;;;;12.53;3.07;;;7.30;99.90;;;;;;20995130;28;20039;-76
2022/02/22 19:02:52;;;;;;;23.13;4.10;;;7.20;99.90;;;;;;21004763;28;20028;-77
2022/02/22 19:12:53;;;;;;;28.07;3.57;;;7.20;99.90;;;;;;21000358;28;20032;-76
2022/02/22 19:22:54;;;;;;;14.63;2.67;;;7.10;99.90;;;;;;20956539;28;20491;-75
2022/02/22 19:32:55;;;;;;;20.27;3.67;;;6.90;99.90;;;;;;21032884;28;20032;-75
2022/02/22 19:42:55;;;;;;;12.07;2.30;;;6.90;99.90;;;;;;21057685;28;20110;-75
2022/02/22 19:52:56;;;;;;;14.63;2.73;;;6.80;99.90;;;;;;21056347;28;20689;-75
2022/02/22 20:02:57;;;;;;;8.83;2.23;;;6.80;99.90;;;;;;20987936;28;20036;-75
2022/02/22 20:12:58;;;;;;;18.83;2.90;;;6.80;99.90;;;;;;21010974;28;20035;-74
2022/02/22 20:22:59;;;;;;;12.13;3.03;;;6.80;99.90;;;;;;21036574;28;20040;-75
2022/02/22 20:33:00;;;;;;;14.57;2.93;;;6.80;99.90;;;;;;20994913;28;20064;-75
2022/02/22 20:43:01;;;;;;;16.07;2.53;;;6.80;99.90;;;;;;20970220;28;20086;-74
2022/02/22 20:53:03;;;;;;;15.30;2.93;;;6.80;99.90;;;;;;20989577;28;20036;-75
2022/02/22 21:03:08;;;;;;;19.00;4.22;;;6.90;99.90;;;;;;21018333;28;20051;-75
2022/02/22 21:13:09;;;;;;;22.17;3.85;;;6.90;99.90;;;;;;21055306;28;20089;-75
2022/02/22 21:23:10;;;;;;;17.87;3.77;;;6.80;99.90;;;;;;21068480;28;20043;-75
2022/02/22 21:33:11;;;;;;;15.93;3.03;;;6.60;99.90;;;;;;21010757;28;20028;-75
2022/02/22 21:43:11;;;;;;;21.53;4.77;;;6.60;99.90;;;;;;21029303;28;20107;-75
2022/02/22 21:53:12;;;;;;;17.37;4.37;;;6.60;99.90;;;;;;21040059;28;20069;-75
2022/02/22 22:03:13;;;;;;;18.27;3.53;;;6.50;99.90;;;;;;21014417;28;20285;-75
2022/02/22 22:13:14;;;;;;;12.83;3.60;;;6.50;99.90;;;;;;21043408;28;20035;-75
2022/02/22 22:23:15;;;;;;;14.23;3.67;;;6.40;99.90;;;;;;21037437;28;20039;-75
2022/02/22 22:33:16;;;;;;;;;;;6.40;99.90;;;;;;21038797;28;20032;-75
2022/02/22 22:43:17;;;;;;;23.37;3.63;;;6.50;99.90;;;;;;21028221;28;19918;-75
2022/02/22 22:53:19;;;;;;;20.77;5.00;;;6.40;99.90;;;;;;20997632;28;20306;-75
2022/02/22 23:03:20;;;;;;;21.37;4.20;;;6.40;99.90;;;;;;20996977;28;20020;-76
2022/02/22 23:23:40;;;;;;;15.50;4.75;;;6.30;99.90;;;;;;20994584;28;20044;-76
2022/02/22 23:33:40;;;;;;;12.20;1.80;;;6.40;99.90;;;;;;20994956;28;20032;-76
2022/02/22 23:43:41;;;;;;;8.70;1.73;;;6.40;99.90;;;;;;20992843;28;20115;-76
2022/02/22 23:53:42;;;;;;;10.23;3.07;;;6.70;99.90;;;;;;21071874;28;20073;-76
